sensor_id;sensor_type;location;lat;lon;timestamp;P1;durP1;ratioP1;P2;durP2;ratioP2
59960;SDS011;55902;-37.980;-63.602;2024-01-30T00:00:28;8.73;;;2.15;;
59960;SDS011;55902;-37.980;-63.602;2024-01-30T00:02:55;16.40;;;2.40;;
59960;SDS011;55902;-37.980;-63.602;2024-01-30T00:05:25;11.70;;;2.20;;
59960;SDS011;55902;-37.980;-63.602;2024-01-30T00:07:55;7.85;;;1.88;;
59960;SDS011;55902;-37.980;-63.602;2024-01-30T00:10:25;7.10;;;1.88;;
59960;SDS011;55902;-37.980;-63.602;2024-01-30T00:12:52;6.43;;;1.60;;
59960;SDS011;55902;-37.980;-63.602;2024-01-30T00:15:22;5.13;;;1.60;;
59960;SDS011;55902;-37.980;-63.602;2024-01-30T00:17:53;6.18;;;1.50;;
59960;SDS011;55902;-37.980;-63.602;2024-01-30T00:20:23;4.78;;;1.33;;
59960;SDS011;55902;-37.980;-63.602;2024-01-30T00:22:53;5.80;;;1.52;;
59960;SDS011;55902;-37.980;-63.602;2024-01-30T00:25:20;8.55;;;1.70;;
59960;SDS011;55902;-37.980;-63.602;2024-01-30T00:27:47;5.78;;;1.63;;
59960;SDS011;55902;-37.980;-63.602;2024-01-30T00:30:14;7.13;;;2.00;;
59960;SDS011;55902;-37.980;-63.602;2024-01-30T00:32:44;5.20;;;1.50;;
59960;SDS011;55902;-37.980;-63.602;2024-01-30T00:35:11;5.95;;;1.60;;
59960;SDS011;55902;-37.980;-63.602;2024-01-30T00:37:38;5.82;;;1.63;;
59960;SDS011;55902;-37.980;-63.602;2024-01-30T00:40:05;7.10;;;1.70;;
59960;SDS011;55902;-37.980;-63.602;2024-01-30T00:42:36;7.60;;;1.70;;
59960;SDS011;55902;-37.980;-63.602;2024-01-30T00:45:03;5.43;;;1.67;;
59960;SDS011;55902;-37.980;-63.602;2024-01-30T00:47:40;7.90;;;1.60;;
59960;SDS011;55902;-37.980;-63.602;2024-01-30T00:50:14;7.95;;;1.73;;
59960;SDS011;55902;-37.980;-63.602;2024-01-30T00:52:41;6.47;;;1.50;;
59960;SDS011;55902;-37.980;-63.602;2024-01-30T00:55:10;4.43;;;1.52;;
59960;SDS011;55902;-37.980;-63.602;2024-01-30T00:57:38;5.97;;;1.50;;
59960;SDS011;55902;-37.980;-63.602;2024-01-30T01:00:05;6.47;;;1.92;;
59960;SDS011;55902;-37.980;-63.602;2024-01-30T01:02:34;9.55;;;1.73;;
59960;SDS011;55902;-37.980;-63.602;2024-01-30T01:05:04;5.90;;;1.40;;
59960;SDS011;55902;-37.980;-63.602;2024-01-30T01:17:40;11.13;;;2.75;;
59960;SDS011;55902;-37.980;-63.602;2024-01-30T01:20:11;10.15;;;2.13;;
59960;SDS011;55902;-37.980;-63.602;2024-01-30T01:22:39;7.03;;;1.73;;
59960;SDS011;55902;-37.980;-63.602;2024-01-30T01:25:07;4.25;;;1.50;;
59960;SDS011;55902;-37.980;-63.602;2024-01-30T01:27:36;3.55;;;1.27;;
59960;SDS011;55902;-37.980;-63.602;2024-01-30T01:30:09;3.55;;;1.20;;
59960;SDS011;55902;-37.980;-63.602;2024-01-30T01:32:39;4.22;;;1.52;;
59960;SDS011;55902;-37.980;-63.602;2024-01-30T01:35:19;5.55;;;1.60;;
59960;SDS011;55902;-37.980;-63.602;2024-01-30T01:37:50;4.88;;;1.52;;
59960;SDS011;55902;-37.980;-63.602;2024-01-30T01:40:23;6.07;;;1.60;;
59960;SDS011;55902;-37.980;-63.602;2024-01-30T01:42:51;4.88;;;1.25;;
59960;SDS011;55902;-37.980;-63.602;2024-01-30T01:45:19;3.15;;;1.10;;
59960;SDS011;55902;-37.980;-63.602;2024-01-30T01:47:48;2.50;;;1.20;;
59960;SDS011;55902;-37.980;-63.602;2024-01-30T01:50:19;6.43;;;1.40;;
59960;SDS011;55902;-37.980;-63.602;2024-01-30T01:52:47;5.18;;;1.30;;
59960;SDS011;55902;-37.980;-63.602;2024-01-30T01:55:21;3.95;;;1.40;;
59960;SDS011;55902;-37.980;-63.602;2024-01-30T01:57:53;2.63;;;1.10;;
59960;SDS011;55902;-37.980;-63.602;2024-01-30T02:00:20;5.95;;;1.08;;
59960;SDS011;55902;-37.980;-63.602;2024-01-30T02:02:51;3.17;;;1.10;;
59960;SDS011;55902;-37.980;-63.602;2024-01-30T02:05:20;3.10;;;1.30;;
59960;SDS011;55902;-37.980;-63.602;2024-01-30T02:07:51;3.50;;;1.73;;
59960;SDS011;55902;-37.980;-63.602;2024-01-30T02:10:18;5.57;;;1.35;;
59960;SDS011;55902;-37.980;-63.602;2024-01-30T02:12:45;4.75;;;1.60;;
59960;SDS011;55902;-37.980;-63.602;2024-01-30T02:15:13;5.97;;;1.30;;
59960;SDS011;55902;-37.980;-63.602;2024-01-30T02:17:40;3.22;;;1.20;;
59960;SDS011;55902;-37.980;-63.602;2024-01-30T02:20:07;5.05;;;1.20;;
59960;SDS011;55902;-37.980;-63.602;2024-01-30T02:22:35;3.50;;;1.10;;
59960;SDS011;55902;-37.980;-63.602;2024-01-30T02:25:03;4.35;;;1.30;;
59960;SDS011;55902;-37.980;-63.602;2024-01-30T02:37:37;6.10;;;1.35;;
59960;SDS011;55902;-37.980;-63.602;2024-01-30T02:40:04;3.88;;;1.38;;
59960;SDS011;55902;-37.980;-63.602;2024-01-30T02:42:32;5.85;;;1.20;;
59960;SDS011;55902;-37.980;-63.602;2024-01-30T02:44:59;3.78;;;1.30;;
59960;SDS011;55902;-37.980;-63.602;2024-01-30T02:47:26;6.78;;;1.40;;
59960;SDS011;55902;-37.980;-63.602;2024-01-30T02:49:53;5.45;;;1.40;;
59960;SDS011;55902;-37.980;-63.602;2024-01-30T02:52:20;5.07;;;1.30;;
59960;SDS011;55902;-37.980;-63.602;2024-01-30T02:54:47;3.88;;;1.20;;
59960;SDS011;55902;-37.980;-63.602;2024-01-30T02:57:14;4.40;;;1.15;;
59960;SDS011;55902;-37.980;-63.602;2024-01-30T02:59:44;4.40;;;1.20;;
59960;SDS011;55902;-37.980;-63.602;2024-01-30T03:02:11;2.35;;;1.00;;
59960;SDS011;55902;-37.980;-63.602;2024-01-30T03:04:40;5.35;;;1.35;;
59960;SDS011;55902;-37.980;-63.602;2024-01-30T03:07:08;4.47;;;1.30;;
59960;SDS011;55902;-37.980;-63.602;2024-01-30T03:09:38;8.63;;;1.48;;
59960;SDS011;55902;-37.980;-63.602;2024-01-30T03:12:07;3.70;;;1.27;;
59960;SDS011;55902;-37.980;-63.602;2024-01-30T03:14:37;5.72;;;1.40;;
59960;SDS011;55902;-37.980;-63.602;2024-01-30T03:17:08;4.60;;;1.13;;
59960;SDS011;55902;-37.980;-63.602;2024-01-30T03:19:35;5.65;;;1.42;;
59960;SDS011;55902;-37.980;-63.602;2024-01-30T03:22:02;4.22;;;1.33;;
59960;SDS011;55902;-37.980;-63.602;2024-01-30T03:24:29;3.95;;;1.35;;
59960;SDS011;55902;-37.980;-63.602;2024-01-30T03:26:56;4.88;;;1.30;;
59960;SDS011;55902;-37.980;-63.602;2024-01-30T03:29:23;5.93;;;1.20;;
59960;SDS011;55902;-37.980;-63.602;2024-01-30T03:31:50;6.03;;;1.27;;
59960;SDS011;55902;-37.980;-63.602;2024-01-30T03:34:17;4.32;;;1.38;;
59960;SDS011;55902;-37.980;-63.602;2024-01-30T03:36:44;3.97;;;1.20;;
59960;SDS011;55902;-37.980;-63.602;2024-01-30T03:39:11;4.93;;;1.25;;
59960;SDS011;55902;-37.980;-63.602;2024-01-30T03:41:38;5.18;;;1.40;;
59960;SDS011;55902;-37.980;-63.602;2024-01-30T03:44:10;5.28;;;1.20;;
59960;SDS011;55902;-37.980;-63.602;2024-01-30T03:46:40;5.15;;;1.45;;
59960;SDS011;55902;-37.980;-63.602;2024-01-30T03:49:10;6.68;;;1.40;;
59960;SDS011;55902;-37.980;-63.602;2024-01-30T03:51:37;7.97;;;1.77;;
59960;SDS011;55902;-37.980;-63.602;2024-01-30T03:54:04;7.32;;;1.50;;
59960;SDS011;55902;-37.980;-63.602;2024-01-30T03:56:31;4.85;;;1.42;;
59960;SDS011;55902;-37.980;-63.602;2024-01-30T03:58:58;6.03;;;1.60;;
59960;SDS011;55902;-37.980;-63.602;2024-01-30T04:01:28;8.35;;;1.70;;
59960;SDS011;55902;-37.980;-63.602;2024-01-30T04:03:55;6.10;;;1.67;;
59960;SDS011;55902;-37.980;-63.602;2024-01-30T04:06:22;4.90;;;1.20;;
59960;SDS011;55902;-37.980;-63.602;2024-01-30T04:08:49;7.53;;;1.40;;
59960;SDS011;55902;-37.980;-63.602;2024-01-30T04:11:18;5.63;;;1.60;;
59960;SDS011;55902;-37.980;-63.602;2024-01-30T04:13:45;5.82;;;1.65;;
59960;SDS011;55902;-37.980;-63.602;2024-01-30T04:16:20;7.90;;;1.50;;
59960;SDS011;55902;-37.980;-63.602;2024-01-30T04:18:51;5.03;;;1.42;;
59960;SDS011;55902;-37.980;-63.602;2024-01-30T04:21:21;6.15;;;1.38;;
59960;SDS011;55902;-37.980;-63.602;2024-01-30T04:23:52;7.43;;;2.15;;
59960;SDS011;55902;-37.980;-63.602;2024-01-30T04:26:19;8.98;;;1.85;;
59960;SDS011;55902;-37.980;-63.602;2024-01-30T04:28:46;7.05;;;1.88;;
59960;SDS011;55902;-37.980;-63.602;2024-01-30T04:31:13;8.85;;;1.88;;
59960;SDS011;55902;-37.980;-63.602;2024-01-30T04:33:40;7.35;;;1.33;;
59960;SDS011;55902;-37.980;-63.602;2024-01-30T04:36:11;5.20;;;1.40;;
59960;SDS011;55902;-37.980;-63.602;2024-01-30T04:38:38;7.93;;;1.60;;
59960;SDS011;55902;-37.980;-63.602;2024-01-30T04:41:05;6.15;;;1.45;;
59960;SDS011;55902;-37.980;-63.602;2024-01-30T04:43:32;9.45;;;1.70;;
59960;SDS011;55902;-37.980;-63.602;2024-01-30T04:45:59;6.97;;;1.63;;
59960;SDS011;55902;-37.980;-63.602;2024-01-30T04:48:26;9.70;;;2.00;;
59960;SDS011;55902;-37.980;-63.602;2024-01-30T04:50:56;9.20;;;1.52;;
59960;SDS011;55902;-37.980;-63.602;2024-01-30T04:53:23;6.93;;;1.60;;
59960;SDS011;55902;-37.980;-63.602;2024-01-30T04:55:50;8.10;;;1.70;;
59960;SDS011;55902;-37.980;-63.602;2024-01-30T04:58:17;4.68;;;1.23;;
59960;SDS011;55902;-37.980;-63.602;2024-01-30T05:10:52;9.63;;;1.92;;
59960;SDS011;55902;-37.980;-63.602;2024-01-30T05:13:23;7.00;;;1.90;;
59960;SDS011;55902;-37.980;-63.602;2024-01-30T05:15:50;11.90;;;2.15;;
59960;SDS011;55902;-37.980;-63.602;2024-01-30T05:18:17;8.15;;;1.75;;
59960;SDS011;55902;-37.980;-63.602;2024-01-30T05:20:44;8.48;;;1.85;;
59960;SDS011;55902;-37.980;-63.602;2024-01-30T05:23:11;11.93;;;2.33;;
59960;SDS011;55902;-37.980;-63.602;2024-01-30T05:25:38;9.85;;;1.77;;
59960;SDS011;55902;-37.980;-63.602;2024-01-30T05:28:05;8.25;;;1.63;;
59960;SDS011;55902;-37.980;-63.602;2024-01-30T05:30:32;10.15;;;2.10;;
59960;SDS011;55902;-37.980;-63.602;2024-01-30T05:32:59;10.27;;;2.17;;
59960;SDS011;55902;-37.980;-63.602;2024-01-30T05:35:26;7.50;;;1.88;;
59960;SDS011;55902;-37.980;-63.602;2024-01-30T05:37:53;8.35;;;1.85;;
59960;SDS011;55902;-37.980;-63.602;2024-01-30T05:40:23;11.63;;;1.90;;
59960;SDS011;55902;-37.980;-63.602;2024-01-30T05:42:50;11.07;;;2.15;;
59960;SDS011;55902;-37.980;-63.602;2024-01-30T05:45:17;12.15;;;2.00;;
59960;SDS011;55902;-37.980;-63.602;2024-01-30T05:47:44;10.95;;;1.92;;
59960;SDS011;55902;-37.980;-63.602;2024-01-30T05:50:11;7.35;;;1.88;;
59960;SDS011;55902;-37.980;-63.602;2024-01-30T05:52:38;11.60;;;2.20;;
59960;SDS011;55902;-37.980;-63.602;2024-01-30T05:55:04;9.73;;;2.00;;
59960;SDS011;55902;-37.980;-63.602;2024-01-30T05:57:32;7.60;;;1.60;;
59960;SDS011;55902;-37.980;-63.602;2024-01-30T06:00:02;11.25;;;1.83;;
59960;SDS011;55902;-37.980;-63.602;2024-01-30T06:02:31;13.05;;;2.22;;
59960;SDS011;55902;-37.980;-63.602;2024-01-30T06:04:58;10.55;;;1.95;;
59960;SDS011;55902;-37.980;-63.602;2024-01-30T06:07:25;13.18;;;2.10;;
59960;SDS011;55902;-37.980;-63.602;2024-01-30T06:09:55;12.05;;;2.00;;
59960;SDS011;55902;-37.980;-63.602;2024-01-30T06:12:24;9.98;;;2.25;;
59960;SDS011;55902;-37.980;-63.602;2024-01-30T06:14:53;6.70;;;1.75;;
59960;SDS011;55902;-37.980;-63.602;2024-01-30T06:17:25;10.98;;;2.08;;
59960;SDS011;55902;-37.980;-63.602;2024-01-30T06:19:55;12.75;;;2.13;;
59960;SDS011;55902;-37.980;-63.602;2024-01-30T06:22:22;9.70;;;2.10;;
59960;SDS011;55902;-37.980;-63.602;2024-01-30T06:24:49;10.18;;;2.08;;
59960;SDS011;55902;-37.980;-63.602;2024-01-30T06:27:19;11.23;;;2.10;;
59960;SDS011;55902;-37.980;-63.602;2024-01-30T06:29:46;11.23;;;2.00;;
59960;SDS011;55902;-37.980;-63.602;2024-01-30T06:32:13;11.57;;;2.08;;
59960;SDS011;55902;-37.980;-63.602;2024-01-30T06:34:41;8.68;;;1.98;;
59960;SDS011;55902;-37.980;-63.602;2024-01-30T06:37:13;11.55;;;2.30;;
59960;SDS011;55902;-37.980;-63.602;2024-01-30T06:39:40;10.30;;;2.00;;
59960;SDS011;55902;-37.980;-63.602;2024-01-30T06:42:06;8.30;;;2.28;;
59960;SDS011;55902;-37.980;-63.602;2024-01-30T06:44:33;13.88;;;2.10;;
59960;SDS011;55902;-37.980;-63.602;2024-01-30T06:47:00;14.88;;;2.60;;
59960;SDS011;55902;-37.980;-63.602;2024-01-30T06:49:31;8.77;;;2.05;;
59960;SDS011;55902;-37.980;-63.602;2024-01-30T06:51:58;15.07;;;2.30;;
59960;SDS011;55902;-37.980;-63.602;2024-01-30T06:54:28;13.77;;;2.08;;
59960;SDS011;55902;-37.980;-63.602;2024-01-30T06:56:55;8.80;;;1.80;;
59960;SDS011;55902;-37.980;-63.602;2024-01-30T06:59:22;11.00;;;2.00;;
59960;SDS011;55902;-37.980;-63.602;2024-01-30T07:01:55;10.10;;;2.30;;
59960;SDS011;55902;-37.980;-63.602;2024-01-30T07:04:22;10.50;;;2.17;;
59960;SDS011;55902;-37.980;-63.602;2024-01-30T07:06:49;13.20;;;2.15;;
59960;SDS011;55902;-37.980;-63.602;2024-01-30T07:09:16;12.05;;;2.30;;
59960;SDS011;55902;-37.980;-63.602;2024-01-30T07:11:43;10.00;;;1.95;;
59960;SDS011;55902;-37.980;-63.602;2024-01-30T07:14:10;15.95;;;2.55;;
59960;SDS011;55902;-37.980;-63.602;2024-01-30T07:16:37;9.48;;;2.05;;
59960;SDS011;55902;-37.980;-63.602;2024-01-30T07:19:04;14.00;;;2.13;;
59960;SDS011;55902;-37.980;-63.602;2024-01-30T07:21:31;11.27;;;2.00;;
59960;SDS011;55902;-37.980;-63.602;2024-01-30T07:23:58;7.80;;;2.17;;
59960;SDS011;55902;-37.980;-63.602;2024-01-30T07:26:28;10.13;;;2.17;;
59960;SDS011;55902;-37.980;-63.602;2024-01-30T07:28:59;10.63;;;2.17;;
59960;SDS011;55902;-37.980;-63.602;2024-01-30T07:31:26;8.65;;;1.90;;
59960;SDS011;55902;-37.980;-63.602;2024-01-30T07:33:53;11.27;;;1.83;;
59960;SDS011;55902;-37.980;-63.602;2024-01-30T07:36:20;12.25;;;1.90;;
59960;SDS011;55902;-37.980;-63.602;2024-01-30T07:38:47;7.78;;;1.70;;
59960;SDS011;55902;-37.980;-63.602;2024-01-30T07:41:22;8.93;;;2.10;;
59960;SDS011;55902;-37.980;-63.602;2024-01-30T07:43:50;8.25;;;2.03;;
59960;SDS011;55902;-37.980;-63.602;2024-01-30T07:46:19;8.52;;;1.80;;
59960;SDS011;55902;-37.980;-63.602;2024-01-30T07:48:46;7.97;;;1.70;;
59960;SDS011;55902;-37.980;-63.602;2024-01-30T07:51:12;5.45;;;1.60;;
59960;SDS011;55902;-37.980;-63.602;2024-01-30T08:03:48;9.50;;;2.00;;
59960;SDS011;55902;-37.980;-63.602;2024-01-30T08:06:15;11.10;;;2.00;;
59960;SDS011;55902;-37.980;-63.602;2024-01-30T08:08:42;7.90;;;2.03;;
59960;SDS011;55902;-37.980;-63.602;2024-01-30T08:11:09;5.93;;;1.90;;
59960;SDS011;55902;-37.980;-63.602;2024-01-30T08:13:36;6.38;;;1.90;;
59960;SDS011;55902;-37.980;-63.602;2024-01-30T08:16:03;5.65;;;1.73;;
59960;SDS011;55902;-37.980;-63.602;2024-01-30T08:18:34;6.68;;;1.67;;
59960;SDS011;55902;-37.980;-63.602;2024-01-30T08:21:01;7.70;;;2.00;;
59960;SDS011;55902;-37.980;-63.602;2024-01-30T08:23:28;9.88;;;1.85;;
59960;SDS011;55902;-37.980;-63.602;2024-01-30T08:25:55;9.38;;;1.77;;
59960;SDS011;55902;-37.980;-63.602;2024-01-30T08:28:22;9.38;;;1.63;;
59960;SDS011;55902;-37.980;-63.602;2024-01-30T08:30:49;9.88;;;1.75;;
59960;SDS011;55902;-37.980;-63.602;2024-01-30T08:33:19;11.93;;;2.17;;
59960;SDS011;55902;-37.980;-63.602;2024-01-30T08:35:46;10.15;;;1.92;;
59960;SDS011;55902;-37.980;-63.602;2024-01-30T08:38:13;7.45;;;1.70;;
59960;SDS011;55902;-37.980;-63.602;2024-01-30T08:40:41;12.20;;;1.98;;
59960;SDS011;55902;-37.980;-63.602;2024-01-30T08:43:08;9.27;;;1.88;;
59960;SDS011;55902;-37.980;-63.602;2024-01-30T08:45:35;8.70;;;1.85;;
59960;SDS011;55902;-37.980;-63.602;2024-01-30T08:48:02;10.73;;;2.20;;
59960;SDS011;55902;-37.980;-63.602;2024-01-30T08:50:29;8.82;;;2.10;;
59960;SDS011;55902;-37.980;-63.602;2024-01-30T08:52:59;12.77;;;3.17;;
59960;SDS011;55902;-37.980;-63.602;2024-01-30T08:55:32;9.73;;;2.38;;
59960;SDS011;55902;-37.980;-63.602;2024-01-30T08:57:59;12.65;;;3.00;;
59960;SDS011;55902;-37.980;-63.602;2024-01-30T09:00:30;12.00;;;2.63;;
59960;SDS011;55902;-37.980;-63.602;2024-01-30T09:02:57;9.32;;;2.70;;
59960;SDS011;55902;-37.980;-63.602;2024-01-30T09:05:24;8.30;;;2.30;;
59960;SDS011;55902;-37.980;-63.602;2024-01-30T09:07:51;9.48;;;2.83;;
59960;SDS011;55902;-37.980;-63.602;2024-01-30T09:10:21;11.45;;;2.60;;
59960;SDS011;55902;-37.980;-63.602;2024-01-30T09:12:48;10.25;;;2.20;;
59960;SDS011;55902;-37.980;-63.602;2024-01-30T09:15:15;9.05;;;2.00;;
59960;SDS011;55902;-37.980;-63.602;2024-01-30T09:17:45;9.70;;;2.08;;
59960;SDS011;55902;-37.980;-63.602;2024-01-30T09:20:12;6.95;;;1.85;;
59960;SDS011;55902;-37.980;-63.602;2024-01-30T09:22:39;8.70;;;2.00;;
59960;SDS011;55902;-37.980;-63.602;2024-01-30T09:25:06;4.85;;;1.70;;
59960;SDS011;55902;-37.980;-63.602;2024-01-30T09:27:34;8.20;;;1.70;;
59960;SDS011;55902;-37.980;-63.602;2024-01-30T09:30:05;7.45;;;2.03;;
59960;SDS011;55902;-37.980;-63.602;2024-01-30T09:32:37;5.07;;;1.75;;
59960;SDS011;55902;-37.980;-63.602;2024-01-30T09:35:11;8.40;;;1.73;;
59960;SDS011;55902;-37.980;-63.602;2024-01-30T09:37:42;9.00;;;2.00;;
59960;SDS011;55902;-37.980;-63.602;2024-01-30T09:40:09;7.38;;;1.98;;
59960;SDS011;55902;-37.980;-63.602;2024-01-30T09:42:39;5.57;;;1.80;;
59960;SDS011;55902;-37.980;-63.602;2024-01-30T09:45:17;9.10;;;2.13;;
59960;SDS011;55902;-37.980;-63.602;2024-01-30T09:47:45;12.65;;;2.22;;
59960;SDS011;55902;-37.980;-63.602;2024-01-30T09:50:14;9.20;;;2.13;;
59960;SDS011;55902;-37.980;-63.602;2024-01-30T09:52:45;6.15;;;1.90;;
59960;SDS011;55902;-37.980;-63.602;2024-01-30T09:55:13;9.68;;;1.98;;
59960;SDS011;55902;-37.980;-63.602;2024-01-30T09:57:41;9.40;;;1.98;;
59960;SDS011;55902;-37.980;-63.602;2024-01-30T10:00:09;7.10;;;2.00;;
59960;SDS011;55902;-37.980;-63.602;2024-01-30T10:02:36;7.70;;;2.20;;
59960;SDS011;55902;-37.980;-63.602;2024-01-30T10:05:08;8.63;;;2.30;;
59960;SDS011;55902;-37.980;-63.602;2024-01-30T10:07:49;7.03;;;1.90;;
59960;SDS011;55902;-37.980;-63.602;2024-01-30T10:10:24;9.02;;;2.10;;
59960;SDS011;55902;-37.980;-63.602;2024-01-30T10:12:51;8.70;;;2.10;;
59960;SDS011;55902;-37.980;-63.602;2024-01-30T10:15:20;9.45;;;2.47;;
59960;SDS011;55902;-37.980;-63.602;2024-01-30T10:17:47;7.38;;;1.83;;
59960;SDS011;55902;-37.980;-63.602;2024-01-30T10:20:14;9.35;;;2.15;;
59960;SDS011;55902;-37.980;-63.602;2024-01-30T10:25:52;10.50;;;2.78;;
59960;SDS011;55902;-37.980;-63.602;2024-01-30T10:28:22;11.07;;;2.53;;
59960;SDS011;55902;-37.980;-63.602;2024-01-30T10:31:02;11.50;;;2.20;;
59960;SDS011;55902;-37.980;-63.602;2024-01-30T10:33:32;9.13;;;2.10;;
59960;SDS011;55902;-37.980;-63.602;2024-01-30T10:36:08;4.70;;;2.03;;
59960;SDS011;55902;-37.980;-63.602;2024-01-30T10:38:38;7.65;;;2.03;;
59960;SDS011;55902;-37.980;-63.602;2024-01-30T10:41:09;9.30;;;2.00;;
59960;SDS011;55902;-37.980;-63.602;2024-01-30T10:43:42;7.18;;;2.25;;
59960;SDS011;55902;-37.980;-63.602;2024-01-30T10:46:20;4.65;;;2.00;;
59960;SDS011;55902;-37.980;-63.602;2024-01-30T10:48:58;7.13;;;2.15;;
59960;SDS011;55902;-37.980;-63.602;2024-01-30T10:51:26;8.10;;;1.98;;
59960;SDS011;55902;-37.980;-63.602;2024-01-30T10:53:57;10.63;;;2.50;;
59960;SDS011;55902;-37.980;-63.602;2024-01-30T10:56:25;22.33;;;3.03;;
59960;SDS011;55902;-37.980;-63.602;2024-01-30T10:58:53;8.15;;;2.17;;
59960;SDS011;55902;-37.980;-63.602;2024-01-30T11:01:32;10.38;;;2.58;;
59960;SDS011;55902;-37.980;-63.602;2024-01-30T11:04:10;9.15;;;2.13;;
59960;SDS011;55902;-37.980;-63.602;2024-01-30T11:06:41;7.55;;;2.38;;
59960;SDS011;55902;-37.980;-63.602;2024-01-30T11:09:10;9.07;;;2.17;;
59960;SDS011;55902;-37.980;-63.602;2024-01-30T11:11:50;7.07;;;1.90;;
59960;SDS011;55902;-37.980;-63.602;2024-01-30T11:14:29;7.35;;;2.10;;
59960;SDS011;55902;-37.980;-63.602;2024-01-30T11:16:59;5.85;;;2.00;;
59960;SDS011;55902;-37.980;-63.602;2024-01-30T11:19:27;4.88;;;1.75;;
59960;SDS011;55902;-37.980;-63.602;2024-01-30T11:22:00;5.57;;;1.95;;
59960;SDS011;55902;-37.980;-63.602;2024-01-30T11:24:27;8.30;;;2.28;;
59960;SDS011;55902;-37.980;-63.602;2024-01-30T11:27:00;10.68;;;2.47;;
59960;SDS011;55902;-37.980;-63.602;2024-01-30T11:29:29;9.63;;;2.25;;
59960;SDS011;55902;-37.980;-63.602;2024-01-30T11:31:57;9.27;;;2.08;;
59960;SDS011;55902;-37.980;-63.602;2024-01-30T11:34:25;12.18;;;2.40;;
59960;SDS011;55902;-37.980;-63.602;2024-01-30T11:37:03;11.15;;;2.63;;
59960;SDS011;55902;-37.980;-63.602;2024-01-30T11:42:03;8.40;;;2.10;;
59960;SDS011;55902;-37.980;-63.602;2024-01-30T11:44:34;13.50;;;2.35;;
59960;SDS011;55902;-37.980;-63.602;2024-01-30T11:47:01;8.20;;;1.90;;
59960;SDS011;55902;-37.980;-63.602;2024-01-30T11:49:29;9.25;;;2.10;;
59960;SDS011;55902;-37.980;-63.602;2024-01-30T11:51:56;12.40;;;4.32;;
59960;SDS011;55902;-37.980;-63.602;2024-01-30T11:54:29;7.20;;;1.98;;
59960;SDS011;55902;-37.980;-63.602;2024-01-30T11:56:56;6.80;;;1.90;;
59960;SDS011;55902;-37.980;-63.602;2024-01-30T11:59:23;14.07;;;2.20;;
59960;SDS011;55902;-37.980;-63.602;2024-01-30T12:01:51;8.43;;;2.38;;
59960;SDS011;55902;-37.980;-63.602;2024-01-30T12:04:18;9.55;;;2.28;;
59960;SDS011;55902;-37.980;-63.602;2024-01-30T12:06:49;7.60;;;2.00;;
59960;SDS011;55902;-37.980;-63.602;2024-01-30T12:09:21;11.50;;;2.20;;
59960;SDS011;55902;-37.980;-63.602;2024-01-30T12:11:48;7.93;;;2.00;;
59960;SDS011;55902;-37.980;-63.602;2024-01-30T12:14:16;9.50;;;1.60;;
59960;SDS011;55902;-37.980;-63.602;2024-01-30T12:16:43;8.43;;;1.80;;
59960;SDS011;55902;-37.980;-63.602;2024-01-30T12:19:20;7.60;;;1.80;;
59960;SDS011;55902;-37.980;-63.602;2024-01-30T12:21:54;11.32;;;2.00;;
59960;SDS011;55902;-37.980;-63.602;2024-01-30T12:24:30;9.52;;;2.00;;
59960;SDS011;55902;-37.980;-63.602;2024-01-30T12:26:57;6.90;;;2.00;;
59960;SDS011;55902;-37.980;-63.602;2024-01-30T12:29:25;7.43;;;1.60;;
59960;SDS011;55902;-37.980;-63.602;2024-01-30T12:31:53;7.68;;;1.85;;
59960;SDS011;55902;-37.980;-63.602;2024-01-30T12:34:20;8.10;;;2.00;;
59960;SDS011;55902;-37.980;-63.602;2024-01-30T12:36:50;5.97;;;1.90;;
59960;SDS011;55902;-37.980;-63.602;2024-01-30T12:39:18;13.20;;;2.38;;
59960;SDS011;55902;-37.980;-63.602;2024-01-30T12:41:45;11.80;;;2.28;;
59960;SDS011;55902;-37.980;-63.602;2024-01-30T12:44:13;6.55;;;1.70;;
59960;SDS011;55902;-37.980;-63.602;2024-01-30T12:47:25;6.13;;;1.85;;
59960;SDS011;55902;-37.980;-63.602;2024-01-30T12:49:37;7.13;;;1.98;;
59960;SDS011;55902;-37.980;-63.602;2024-01-30T12:52:04;5.13;;;1.75;;
59960;SDS011;55902;-37.980;-63.602;2024-01-30T12:54:31;6.88;;;2.08;;
59960;SDS011;55902;-37.980;-63.602;2024-01-30T12:56:58;6.90;;;1.88;;
59960;SDS011;55902;-37.980;-63.602;2024-01-30T12:59:29;5.38;;;2.00;;
59960;SDS011;55902;-37.980;-63.602;2024-01-30T13:02:00;6.70;;;2.00;;
59960;SDS011;55902;-37.980;-63.602;2024-01-30T13:04:28;8.07;;;2.63;;
59960;SDS011;55902;-37.980;-63.602;2024-01-30T13:06:56;6.38;;;2.38;;
59960;SDS011;55902;-37.980;-63.602;2024-01-30T13:09:26;9.35;;;2.40;;
59960;SDS011;55902;-37.980;-63.602;2024-01-30T13:12:00;6.80;;;2.50;;
59960;SDS011;55902;-37.980;-63.602;2024-01-30T13:14:27;7.53;;;2.53;;
59960;SDS011;55902;-37.980;-63.602;2024-01-30T13:16:54;8.95;;;3.00;;
59960;SDS011;55902;-37.980;-63.602;2024-01-30T13:19:24;9.07;;;3.05;;
59960;SDS011;55902;-37.980;-63.602;2024-01-30T13:21:57;7.18;;;3.03;;
59960;SDS011;55902;-37.980;-63.602;2024-01-30T13:24:28;18.40;;;4.00;;
59960;SDS011;55902;-37.980;-63.602;2024-01-30T13:26:56;9.15;;;3.70;;
59960;SDS011;55902;-37.980;-63.602;2024-01-30T13:29:23;8.57;;;4.10;;
59960;SDS011;55902;-37.980;-63.602;2024-01-30T13:31:56;6.75;;;3.90;;
59960;SDS011;55902;-37.980;-63.602;2024-01-30T13:34:25;13.07;;;4.60;;
59960;SDS011;55902;-37.980;-63.602;2024-01-30T13:36:53;15.20;;;4.88;;
59960;SDS011;55902;-37.980;-63.602;2024-01-30T13:39:20;9.63;;;5.45;;
59960;SDS011;55902;-37.980;-63.602;2024-01-30T13:41:51;13.20;;;6.03;;
59960;SDS011;55902;-37.980;-63.602;2024-01-30T13:44:18;10.10;;;5.03;;
59960;SDS011;55902;-37.980;-63.602;2024-01-30T13:46:46;12.02;;;5.80;;
59960;SDS011;55902;-37.980;-63.602;2024-01-30T13:49:13;8.43;;;4.68;;
59960;SDS011;55902;-37.980;-63.602;2024-01-30T13:51:40;7.22;;;4.43;;
59960;SDS011;55902;-37.980;-63.602;2024-01-30T13:54:08;11.35;;;4.95;;
59960;SDS011;55902;-37.980;-63.602;2024-01-30T13:56:34;6.95;;;4.07;;
59960;SDS011;55902;-37.980;-63.602;2024-01-30T13:59:01;8.38;;;4.07;;
59960;SDS011;55902;-37.980;-63.602;2024-01-30T14:01:31;7.30;;;4.00;;
59960;SDS011;55902;-37.980;-63.602;2024-01-30T14:03:57;9.50;;;3.75;;
59960;SDS011;55902;-37.980;-63.602;2024-01-30T14:06:25;9.15;;;3.72;;
59960;SDS011;55902;-37.980;-63.602;2024-01-30T14:09:15;9.15;;;3.63;;
59960;SDS011;55902;-37.980;-63.602;2024-01-30T14:11:42;6.05;;;3.33;;
59960;SDS011;55902;-37.980;-63.602;2024-01-30T14:14:09;7.00;;;3.85;;
59960;SDS011;55902;-37.980;-63.602;2024-01-30T14:16:36;7.35;;;3.75;;
59960;SDS011;55902;-37.980;-63.602;2024-01-30T14:19:03;14.13;;;4.22;;
59960;SDS011;55902;-37.980;-63.602;2024-01-30T14:21:31;5.55;;;3.60;;
59960;SDS011;55902;-37.980;-63.602;2024-01-30T14:23:58;8.90;;;4.13;;
59960;SDS011;55902;-37.980;-63.602;2024-01-30T14:26:25;9.77;;;4.57;;
59960;SDS011;55902;-37.980;-63.602;2024-01-30T14:28:52;8.35;;;5.40;;
59960;SDS011;55902;-37.980;-63.602;2024-01-30T14:31:23;10.30;;;5.18;;
59960;SDS011;55902;-37.980;-63.602;2024-01-30T14:33:50;8.35;;;4.78;;
59960;SDS011;55902;-37.980;-63.602;2024-01-30T14:36:17;6.20;;;4.50;;
59960;SDS011;55902;-37.980;-63.602;2024-01-30T14:38:50;8.15;;;4.35;;
59960;SDS011;55902;-37.980;-63.602;2024-01-30T14:41:17;9.73;;;4.90;;
59960;SDS011;55902;-37.980;-63.602;2024-01-30T14:43:52;9.80;;;4.60;;
59960;SDS011;55902;-37.980;-63.602;2024-01-30T14:46:20;9.50;;;4.78;;
59960;SDS011;55902;-37.980;-63.602;2024-01-30T14:48:48;11.02;;;5.38;;
59960;SDS011;55902;-37.980;-63.602;2024-01-30T14:51:23;10.75;;;5.85;;
59960;SDS011;55902;-37.980;-63.602;2024-01-30T14:53:55;9.15;;;6.05;;
59960;SDS011;55902;-37.980;-63.602;2024-01-30T14:59:05;8.18;;;5.43;;
59960;SDS011;55902;-37.980;-63.602;2024-01-30T15:01:32;9.45;;;5.75;;
59960;SDS011;55902;-37.980;-63.602;2024-01-30T15:04:06;8.70;;;5.63;;